West Fort Ann, New York
Current Conditions -  °F | °C
As of 2:53 PM on Friday 19 Dec 2014 (Local Time) from KGFL Reporting Station
Broken Clouds Broken Clouds  
Wind Chill: -5°   Ceiling: 6000
Heat Index: -1°   Visibility: 10mi
Dew Point: -6°   Wind: 9mph
Humidity: 69%   Direction: 50°NE
Pressure: 30.05"   Gusts: NA
Location:  43.4639°N, 73.5204°W
Report Text: KGFL 191953Z AUTO 05008KT 10SM BKN060 M01/M06 A3005 RMK AO2 SLP186 T10061056
Loading
Personal Weather Stations






























Interactive Weather Map New forecast layout! Learn more

10-Day Weather Forecast

Advertisements
Track Severe Weather on mobile